Haywood, Kentucky
Current Conditions -  °F | °C
As of 10:55 PM on Saturday 25 Oct 2014 (Local Time) from KGLW Reporting Station
Moderate Fog Moderate Fog  
Wind Chill: 53°   Ceiling: 300
Heat Index: 53°   Visibility: 0.25mi
Dew Point: 53°   Wind: 0mph
Humidity: 100%   Direction: NA
Pressure: 30.01"   Gusts: NA
Location:  36.9602°N, 85.9175°W
Report Text: KGLW 260355Z AUTO 00000KT 1/4SM FG OVC003 12/12 A3001 RMK AO2 T01190119 402400051
Loading
Personal Weather Stations






























Interactive Weather Map
Tropical Storm Tracking
New forecast layout! Learn more

10-Day Weather Forecast

Advertisements
Track Severe Weather on mobile